Time;durP1;ratioP1;P1;durP2;ratioP2;P2;SDS_P1;SDS_P2;PMS_P1;PMS_P2;Temp;Humidity;BMP_temperature;BMP_pressure;BME280_temperature;BME280_humidity;BME280_pressure;Samples;Min_cycle;Max_cycle;Signal;HPM_P1;HPM_P2
2021/12/27 00:00:26;;;;;;;10.52;4.47;;;;;;;-1.65;90.48;99906.09;5296223;27;20024;-75
2021/12/27 00:03:00;;;;;;;12.10;4.82;;;;;;;-1.61;92.18;99898.41;5297660;27;20030;-75
2021/12/27 00:05:31;;;;;;;11.05;4.68;;;;;;;-1.63;90.69;99896.69;5297249;27;20034;-75
2021/12/27 00:08:02;;;;;;;11.05;4.63;;;;;;;-1.44;88.97;99880.53;5295965;27;20035;-76
2021/12/27 00:10:32;;;;;;;11.07;4.38;;;;;;;-1.35;88.09;99877.94;5271464;27;20396;-76
2021/12/27 00:13:04;;;;;;;12.38;4.88;;;;;;;-1.38;89.06;99876.22;5290825;27;20023;-75
2021/12/27 00:15:34;;;;;;;10.32;4.57;;;;;;;-1.34;88.61;99877.09;5292299;27;20034;-76
2021/12/27 00:18:05;;;;;;;9.68;4.28;;;;;;;-1.36;87.57;99881.38;5288585;27;20039;-75
2021/12/27 00:20:35;;;;;;;14.90;4.95;;;;;;;-1.23;89.10;99875.41;5289460;27;20480;-75
2021/12/27 00:23:06;;;;;;;9.95;4.55;;;;;;;-1.20;89.48;99880.53;5288645;27;20077;-76
2021/12/27 00:25:36;;;;;;;13.45;5.13;;;;;;;-1.23;90.07;99873.69;5291503;27;20030;-76
2021/12/27 00:28:07;;;;;;;13.25;4.90;;;;;;;-1.17;90.06;99870.25;5290290;27;20036;-76
2021/12/27 00:30:38;;;;;;;11.00;4.20;;;;;;;-1.12;90.15;99866.84;5290263;27;20031;-75
2021/12/27 00:33:08;;;;;;;11.75;4.75;;;;;;;-1.21;89.92;99858.31;5288263;27;20039;-76
2021/12/27 00:35:40;;;;;;;13.82;4.60;;;;;;;-1.23;90.09;99868.56;5286785;27;20078;-76
2021/12/27 00:38:10;;;;;;;11.25;4.68;;;;;;;-1.23;91.08;99860.03;5286671;27;20152;-76
2021/12/27 00:40:40;;;;;;;9.95;4.82;;;;;;;-1.37;90.85;99861.72;5289505;27;20697;-77
2021/12/27 00:43:11;;;;;;;12.60;4.63;;;;;;;-1.47;92.53;99860.00;5287202;27;20429;-76
2021/12/27 00:45:41;;;;;;;12.02;5.20;;;;;;;-1.44;92.00;99854.91;5287327;27;20027;-77
2021/12/27 00:48:12;;;;;;;12.68;5.20;;;;;;;-1.52;92.41;99857.47;5289132;27;20110;-77
2021/12/27 00:50:43;;;;;;;10.63;4.68;;;;;;;-1.48;92.62;99858.31;5287675;27;20403;-76
2021/12/27 00:53:13;;;;;;;11.50;4.90;;;;;;;-1.53;92.88;99855.75;5289410;27;20026;-76
2021/12/27 00:55:44;;;;;;;11.80;4.72;;;;;;;-1.56;92.53;99840.38;5305398;27;20023;-77
2021/12/27 00:58:14;;;;;;;12.40;5.22;;;;;;;-1.50;93.25;99842.94;5304559;27;20031;-77
2021/12/27 01:00:45;;;;;;;11.80;5.20;;;;;;;-1.48;93.58;99837.81;5300061;27;20388;-76
2021/12/27 01:03:15;;;;;;;12.45;4.95;;;;;;;-1.48;93.82;99837.81;5303921;27;20573;-75
2021/12/27 01:05:46;;;;;;;10.73;4.78;;;;;;;-1.49;93.62;99825.84;5287279;27;20022;-76
2021/12/27 01:08:17;;;;;;;12.68;4.95;;;;;;;-1.45;94.08;99819.88;5287562;27;20028;-76
2021/12/27 01:11:10;;;;;;;13.35;4.95;;;;;;;-1.39;94.50;99825.84;5285631;27;20030;-75
2021/12/27 01:13:47;;;;;;;11.27;5.18;;;;;;;-1.37;94.26;99828.44;5285240;27;20027;-77
2021/12/27 01:16:17;;;;;;;14.45;5.35;;;;;;;-1.38;96.00;99822.44;5284886;27;20031;-76
2021/12/27 01:18:49;;;;;;;13.93;5.43;;;;;;;-1.28;95.84;99818.16;5277129;27;20032;-76
2021/12/27 01:21:22;;;;;;;11.55;5.63;;;;;;;-1.23;96.43;99827.56;5284587;27;20127;-76
2021/12/27 01:23:55;;;;;;;11.07;5.13;;;;;;;-1.17;96.94;99819.00;5284333;28;20076;-76
2021/12/27 01:26:25;;;;;;;12.32;5.72;;;;;;;-1.08;96.08;99813.88;5287145;27;20027;-76
2021/12/27 01:28:57;;;;;;;12.32;5.03;;;;;;;-1.18;94.50;99822.44;5285774;28;20442;-75
2021/12/27 01:31:28;;;;;;;13.30;5.13;;;;;;;-1.16;93.03;99813.03;5267295;28;20020;-75
2021/12/27 01:33:58;;;;;;;15.75;5.35;;;;;;;-1.12;91.55;99822.41;5284838;27;20030;-77
2021/12/27 01:36:32;;;;;;;12.05;4.82;;;;;;;-1.45;92.26;99807.94;5285411;28;20075;-77
2021/12/27 01:39:05;;;;;;;12.48;5.07;;;;;;;-1.63;93.30;99814.75;5285534;27;20648;-76
2021/12/27 01:41:35;;;;;;;13.95;5.35;;;;;;;-1.64;94.85;99811.34;5292673;27;20019;-78
2021/12/27 01:44:05;;;;;;;13.27;4.95;;;;;;;-1.55;93.17;99813.06;5267136;28;20038;-78
2021/12/27 01:46:36;;;;;;;13.82;4.93;;;;;;;-1.68;93.82;99809.66;5264793;28;20059;-77
2021/12/27 01:49:07;;;;;;;13.80;5.40;;;;;;;-1.49;92.46;99811.34;5281001;28;20492;-75
2021/12/27 01:51:40;;;;;;;10.52;4.95;;;;;;;-1.45;92.67;99812.19;5283395;28;20030;-76
2021/12/27 01:54:11;;;;;;;11.18;5.25;;;;;;;-1.71;93.40;99811.34;5268683;27;20031;-76
2021/12/27 01:56:41;;;;;;;11.93;4.90;;;;;;;-1.69;95.01;99800.25;5295479;27;20511;-76
2021/12/27 01:59:11;;;;;;;10.77;4.75;;;;;;;-1.46;93.66;99795.97;5293033;27;20118;-77
2021/12/27 02:01:42;;;;;;;15.35;5.53;;;;;;;-1.46;93.77;99800.22;5296463;27;20094;-76
2021/12/27 02:04:12;;;;;;;14.35;5.80;;;;;;;-1.35;93.77;99801.97;5292575;27;20027;-77
2021/12/27 02:06:42;;;;;;;15.07;5.57;;;;;;;-1.47;92.61;99799.41;5296070;27;20047;-76
2021/12/27 02:09:12;;;;;;;12.60;5.00;;;;;;;-1.36;91.85;99799.38;5292402;27;20385;-75
2021/12/27 02:11:43;;;;;;;13.65;5.70;;;;;;;-1.21;91.92;99796.81;5287995;27;20019;-75
2021/12/27 02:14:13;;;;;;;16.38;5.78;;;;;;;-1.45;93.00;99794.25;5289614;27;20030;-77
2021/12/27 02:16:43;;;;;;;12.40;5.07;;;;;;;-1.29;93.03;99785.72;5301248;27;20506;-75
2021/12/27 02:19:14;;;;;;;13.88;5.28;;;;;;;-1.39;93.87;99781.47;5286987;27;20055;-76
2021/12/27 02:21:44;;;;;;;12.57;5.82;;;;;;;-1.46;94.59;99778.06;5291515;27;20133;-75
2021/12/27 02:24:14;;;;;;;14.30;5.63;;;;;;;-1.40;95.09;99787.44;5294984;27;20015;-75
2021/12/27 02:26:45;;;;;;;11.98;5.78;;;;;;;-1.43;96.28;99779.78;5301540;27;20160;-75
2021/12/27 02:29:15;;;;;;;11.40;5.82;;;;;;;-1.28;96.75;99774.59;5294368;28;20024;-75
2021/12/27 02:31:47;;;;;;;14.27;5.75;;;;;;;-1.21;97.93;99760.94;5290640;27;20023;-75
2021/12/27 02:34:18;;;;;;;16.13;5.60;;;;;;;-1.33;98.67;99766.06;5300260;27;20027;-76
2021/12/27 02:36:48;;;;;;;15.25;5.90;;;;;;;-1.37;98.47;99765.22;5297487;27;20035;-76
2021/12/27 02:39:19;;;;;;;15.60;5.45;;;;;;;-1.81;96.75;99773.78;5291522;28;20022;-75
2021/12/27 02:41:49;;;;;;;12.38;5.72;;;;;;;-1.85;97.71;99777.19;5292784;28;20027;-76
2021/12/27 02:44:19;;;;;;;12.68;5.00;;;;;;;-1.64;97.02;99777.19;5299758;28;20031;-76
2021/12/27 02:46:50;;;;;;;14.70;5.40;;;;;;;-1.61;96.53;99775.50;5302880;28;20027;-76
2021/12/27 02:49:20;;;;;;;14.45;5.53;;;;;;;-1.40;96.37;99761.81;5296596;27;20084;-76
2021/12/27 02:51:52;;;;;;;14.82;5.72;;;;;;;-1.46;96.50;99754.13;5303488;27;20392;-76
2021/12/27 02:54:22;;;;;;;11.10;5.40;;;;;;;-1.27;96.83;99754.09;5302963;27;20027;-76
2021/12/27 02:56:53;;;;;;;14.35;5.80;;;;;;;-1.44;96.02;99753.28;5307704;27;20034;-76
2021/12/27 02:59:23;;;;;;;13.38;5.32;;;;;;;-1.32;96.68;99742.16;5307215;27;20174;-76
2021/12/27 03:01:54;;;;;;;12.52;5.60;;;;;;;-1.30;96.35;99754.13;5307914;27;20090;-76
2021/12/27 03:04:24;;;;;;;14.73;5.80;;;;;;;-1.32;96.74;99760.97;5307548;27;20499;-76
2021/12/27 03:06:54;;;;;;;11.52;5.38;;;;;;;-1.13;96.78;99751.50;5307837;27;20046;-76
2021/12/27 03:09:27;;;;;;;12.80;6.05;;;;;;;-1.25;97.97;99744.72;5307728;27;20062;-76
2021/12/27 03:11:57;;;;;;;12.63;6.13;;;;;;;-1.22;98.50;99738.72;5307813;27;20019;-76
2021/12/27 03:14:27;;;;;;;14.57;6.45;;;;;;;-1.22;98.72;99736.19;5307877;27;20019;-76
2021/12/27 03:16:58;;;;;;;13.80;6.82;;;;;;;-1.18;98.92;99733.59;5301054;27;20084;-76
2021/12/27 03:19:28;;;;;;;14.82;6.55;;;;;;;-1.22;99.73;99724.19;5289489;27;20028;-77
2021/12/27 03:21:58;;;;;;;15.18;6.15;;;;;;;-1.30;97.65;99730.19;5287624;28;20031;-76
2021/12/27 03:24:28;;;;;;;13.85;6.03;;;;;;;-1.43;97.90;99728.53;5291377;27;20023;-76
2021/12/27 03:26:59;;;;;;;12.35;5.70;;;;;;;-1.45;98.14;99720.84;5297528;27;20035;-76
2021/12/27 03:29:29;;;;;;;12.82;6.10;;;;;;;-1.50;97.56;99731.94;5297803;27;20023;-76
2021/12/27 03:31:59;;;;;;;13.13;5.82;;;;;;;-1.42;97.45;99732.81;5297151;27;20108;-75
2021/12/27 03:34:32;;;;;;;18.23;6.28;;;;;;;-1.40;97.44;99728.53;5298149;27;20042;-77
2021/12/27 03:37:02;;;;;;;13.02;5.85;;;;;;;-1.45;97.52;99720.84;5297848;27;20047;-76
2021/12/27 03:39:33;;;;;;;16.50;6.47;;;;;;;-1.49;99.12;99724.28;5297756;27;20027;-76
2021/12/27 03:42:03;;;;;;;14.20;6.15;;;;;;;-1.48;99.92;99718.28;5282213;27;20036;-76
2021/12/27 03:44:33;;;;;;;13.23;6.22;;;;;;;-1.21;98.64;99715.66;5281066;28;20047;-76
2021/12/27 03:47:04;;;;;;;15.73;6.45;;;;;;;-1.19;99.12;99713.09;5286953;28;20655;-76
2021/12/27 03:49:34;;;;;;;16.52;6.93;;;;;;;-1.07;99.28;99702.81;5283804;28;20098;-76
2021/12/27 03:52:05;;;;;;;13.73;6.70;;;;;;;-1.09;100.00;99707.09;5286205;28;20038;-75
2021/12/27 03:54:35;;;;;;;13.05;6.45;;;;;;;-1.03;100.00;99699.38;5269749;28;20403;-76
2021/12/27 03:57:05;;;;;;;15.32;7.20;;;;;;;-0.95;100.00;99703.63;5240458;28;20024;-77
2021/12/27 04:02:16;;;;;;;16.23;6.43;;;;;;;-0.92;100.00;99700.19;5273864;27;20397;-75
2021/12/27 04:04:46;;;;;;;17.27;6.97;;;;;;;-0.95;100.00;99697.63;5299834;27;20023;-76
2021/12/27 04:07:18;;;;;;;16.90;7.20;;;;;;;-1.01;100.00;99697.66;5295249;27;20047;-76
2021/12/27 04:09:48;;;;;;;16.30;7.40;;;;;;;-0.97;100.00;99701.91;5298575;27;20027;-76
2021/12/27 04:12:18;;;;;;;14.15;6.90;;;;;;;-1.02;100.00;99708.78;5294933;27;20577;-75
2021/12/27 04:14:48;;;;;;;17.75;7.05;;;;;;;-1.10;100.00;99707.97;5298991;27;20041;-76
2021/12/27 04:17:19;;;;;;;16.42;6.82;;;;;;;-1.07;100.00;99702.81;5295414;27;20035;-77
2021/12/27 04:19:49;;;;;;;11.82;6.30;;;;;;;-1.16;100.00;99708.81;5285524;27;20031;-76
2021/12/27 04:22:19;;;;;;;16.35;6.55;;;;;;;-1.25;100.00;99703.72;5285724;28;20123;-76
2021/12/27 04:24:50;;;;;;;14.23;6.45;;;;;;;-1.31;100.00;99697.75;5290712;27;20023;-75
2021/12/27 04:27:20;;;;;;;17.33;7.20;;;;;;;-1.30;100.00;99694.31;5300259;27;20079;-79
2021/12/27 04:29:50;;;;;;;17.45;6.75;;;;;;;-1.30;100.00;99690.06;5297135;27;20020;-78
2021/12/27 04:32:21;;;;;;;20.33;7.30;;;;;;;-1.25;100.00;99687.50;5299388;27;20059;-78
2021/12/27 04:34:52;;;;;;;17.50;6.70;;;;;;;-1.25;100.00;99700.31;5297368;27;20047;-79
2021/12/27 04:37:23;;;;;;;19.02;7.53;;;;;;;-1.29;100.00;99690.91;5299571;27;20378;-79
2021/12/27 04:39:53;;;;;;;16.17;7.22;;;;;;;-1.28;100.00;99687.47;5297165;27;20035;-78
2021/12/27 04:42:25;;;;;;;17.23;6.95;;;;;;;-1.23;100.00;99690.91;5298653;27;20611;-78
2021/12/27 04:44:56;;;;;;;15.00;6.93;;;;;;;-1.20;100.00;99681.47;5278666;27;20027;-78
2021/12/27 04:47:26;;;;;;;18.73;8.10;;;;;;;-1.24;100.00;99684.09;5298596;27;20023;-78
2021/12/27 04:49:57;;;;;;;17.35;7.13;;;;;;;-1.21;100.00;99686.63;5286753;28;20024;-78
2021/12/27 04:52:27;;;;;;;20.15;7.15;;;;;;;-1.36;100.00;99678.97;5287076;28;20034;-78
2021/12/27 04:54:58;;;;;;;17.40;7.05;;;;;;;-1.19;100.00;99682.34;5291800;27;20031;-78
2021/12/27 04:57:28;;;;;;;18.27;7.00;;;;;;;-1.19;100.00;99690.91;5295702;27;20416;-78
2021/12/27 04:59:59;;;;;;;19.70;7.20;;;;;;;-1.17;100.00;99681.50;5297043;27;20126;-78
2021/12/27 05:02:29;;;;;;;16.55;7.22;;;;;;;-1.18;100.00;99672.09;5279251;27;20019;-78
2021/12/27 05:05:00;;;;;;;17.08;7.05;;;;;;;-1.16;100.00;99682.34;5297538;27;20028;-78
2021/12/27 05:07:30;;;;;;;16.60;7.40;;;;;;;-1.06;100.00;99678.88;5297149;27;20054;-78
2021/12/27 05:10:01;;;;;;;19.52;7.95;;;;;;;-1.18;100.00;99684.03;5294058;27;20039;-78
2021/12/27 05:12:31;;;;;;;20.02;7.45;;;;;;;-1.22;100.00;99675.50;5297208;27;20516;-78
2021/12/27 05:15:03;;;;;;;15.85;6.95;;;;;;;-1.20;100.00;99671.22;5297116;27;20031;-79
2021/12/27 05:17:34;;;;;;;19.35;7.03;;;;;;;-1.22;100.00;99657.56;5296054;27;20409;-77
2021/12/27 05:20:05;;;;;;;21.35;7.75;;;;;;;-1.32;100.00;99665.28;5284644;28;20074;-78
2021/12/27 05:22:37;;;;;;;16.65;7.57;;;;;;;-1.39;100.00;99663.63;5284717;28;20116;-78
2021/12/27 05:25:11;;;;;;;21.30;8.23;;;;;;;-1.37;100.00;99672.16;5292703;27;20361;-77
2021/12/27 05:27:42;;;;;;;18.17;7.63;;;;;;;-1.43;100.00;99662.78;5294274;27;20023;-78
2021/12/27 05:30:13;;;;;;;17.58;7.90;;;;;;;-1.44;100.00;99653.38;5297009;27;20016;-78
2021/12/27 05:32:44;;;;;;;15.07;7.25;;;;;;;-1.36;100.00;99648.25;5293691;27;20030;-78
2021/12/27 05:35:15;;;;;;;18.80;7.53;;;;;;;-1.35;100.00;99645.69;5298152;27;20504;-78
2021/12/27 05:37:45;;;;;;;20.08;8.73;;;;;;;-1.39;100.00;99645.69;5293333;27;20023;-79
2021/12/27 05:40:19;;;;;;;21.05;8.27;;;;;;;-1.36;100.00;99645.69;5296811;27;20091;-78
2021/12/27 05:42:51;;;;;;;18.60;8.07;;;;;;;-1.37;100.00;99636.28;5274158;27;20062;-79
2021/12/27 05:45:22;;;;;;;20.48;8.43;;;;;;;-1.35;100.00;99629.44;5279670;28;20031;-78
2021/12/27 05:47:52;;;;;;;21.35;8.70;;;;;;;-1.36;100.00;99631.19;5281322;28;20031;-78
2021/12/27 05:50:23;;;;;;;19.48;8.23;;;;;;;-1.25;100.00;99631.13;5284376;28;20022;-80
2021/12/27 05:52:53;;;;;;;19.83;8.25;;;;;;;-1.16;100.00;99623.38;5282854;28;20088;-78
2021/12/27 05:55:24;;;;;;;17.90;8.15;;;;;;;-1.34;100.00;99636.28;5249945;28;20066;-78
2021/12/27 05:57:54;;;;;;;18.52;7.88;;;;;;;-1.40;100.00;99636.31;5245255;28;20449;-78
2021/12/27 06:00:24;;;;;;;20.65;8.90;;;;;;;-1.34;100.00;99628.59;5237302;28;20595;-80
2021/12/27 06:02:55;;;;;;;18.42;8.45;;;;;;;-1.03;100.00;99632.72;5244334;28;20157;-80
2021/12/27 06:05:25;;;;;;;20.13;8.05;;;;;;;-1.03;100.00;99637.84;5237806;28;20653;-78
2021/12/27 06:07:56;;;;;;;17.58;7.88;;;;;;;-1.01;100.00;99638.69;5244148;28;20027;-78
2021/12/27 06:10:26;;;;;;;19.45;8.00;;;;;;;-1.13;100.00;99625.94;5238038;28;20135;-79
2021/12/27 06:12:56;;;;;;;17.10;7.95;;;;;;;-1.10;100.00;99636.19;5243772;28;20028;-79
2021/12/27 06:15:26;;;;;;;16.95;7.97;;;;;;;-1.14;100.00;99624.22;5238243;28;20491;-80
2021/12/27 06:17:57;;;;;;;18.23;7.50;;;;;;;-1.08;100.00;99624.22;5247819;28;20114;-80
2021/12/27 06:20:27;;;;;;;16.08;7.20;;;;;;;-1.08;100.00;99625.06;5283607;28;20050;-79
2021/12/27 06:22:58;;;;;;;19.23;7.93;;;;;;;-1.09;100.00;99631.03;5282859;28;20020;-78
2021/12/27 06:25:29;;;;;;;22.90;8.68;;;;;;;-1.03;100.00;99622.47;5249111;28;20037;-79
2021/12/27 06:27:59;;;;;;;22.25;8.70;;;;;;;-0.89;100.00;99613.00;5265326;28;20027;-80
2021/12/27 06:30:30;;;;;;;15.95;7.68;;;;;;;-0.91;100.00;99610.44;5283907;28;20046;-79
2021/12/27 06:33:00;;;;;;;16.98;8.05;;;;;;;-0.81;100.00;99616.38;5278686;28;20114;-79
2021/12/27 06:35:30;;;;;;;20.50;8.13;;;;;;;-0.90;100.00;99612.16;5283776;28;20024;-78
2021/12/27 06:38:00;;;;;;;20.90;8.35;;;;;;;-0.83;100.00;99616.41;5282696;28;20527;-80
2021/12/27 06:40:31;;;;;;;19.40;9.10;;;;;;;-0.83;100.00;99615.53;5283171;28;20023;-79
2021/12/27 06:43:01;;;;;;;18.17;8.25;;;;;;;-0.85;100.00;99613.00;5282540;28;20032;-79
2021/12/27 06:45:32;;;;;;;18.83;8.93;;;;;;;-0.78;100.00;99603.53;5283000;28;20153;-80
2021/12/27 06:48:02;;;;;;;18.38;8.60;;;;;;;-0.82;100.00;99612.97;5279218;28;20026;-79
2021/12/27 06:50:32;;;;;;;23.42;9.05;;;;;;;-0.68;100.00;99615.44;5283617;28;20015;-79
2021/12/27 06:53:03;;;;;;;19.83;8.45;;;;;;;-0.75;100.00;99613.78;5282617;28;20544;-78
2021/12/27 06:55:33;;;;;;;19.73;9.15;;;;;;;-0.72;100.00;99624.03;5249138;28;20030;-77
2021/12/27 06:58:05;;;;;;;23.10;9.57;;;;;;;-0.70;100.00;99624.88;5239032;28;20400;-78
2021/12/27 07:00:35;;;;;;;17.65;8.63;;;;;;;-0.81;100.00;99619.81;5243404;28;20159;-79
2021/12/27 07:03:05;;;;;;;20.30;9.05;;;;;;;-0.72;100.00;99624.84;5237378;28;20108;-79
2021/12/27 07:05:36;;;;;;;18.83;8.63;;;;;;;-0.84;100.00;99614.69;5249017;28;20037;-79
2021/12/27 07:08:06;;;;;;;19.48;8.93;;;;;;;-0.81;100.00;99613.81;5291363;28;20057;-79
2021/12/27 07:10:37;;;;;;;20.10;9.05;;;;;;;-0.91;100.00;99612.19;5294567;27;20019;-79
2021/12/27 07:13:09;;;;;;;19.73;9.00;;;;;;;-0.87;100.00;99598.47;5293207;28;20027;-79
2021/12/27 07:15:41;;;;;;;23.77;8.82;;;;;;;-0.88;100.00;99601.91;5295267;28;20034;-78
2021/12/27 07:18:16;;;;;;;21.80;9.30;;;;;;;-0.90;100.00;99603.63;5287866;28;20024;-79
2021/12/27 07:20:46;;;;;;;20.15;8.60;;;;;;;-0.79;100.00;99601.81;5279545;28;20027;-78
2021/12/27 07:23:17;;;;;;;21.17;9.18;;;;;;;-0.91;100.00;99595.06;5282592;28;20049;-79
2021/12/27 07:25:47;;;;;;;18.17;8.43;;;;;;;-0.87;100.00;99591.59;5291778;28;20486;-80
2021/12/27 07:28:18;;;;;;;21.65;9.68;;;;;;;-0.84;100.00;99583.06;5291666;28;20031;-79
2021/12/27 07:30:48;;;;;;;19.17;8.77;;;;;;;-0.83;100.00;99600.16;5295535;28;20110;-81
2021/12/27 07:33:18;;;;;;;20.45;9.43;;;;;;;-0.74;100.00;99589.84;5291712;28;20027;-80
2021/12/27 07:35:48;;;;;;;23.17;9.68;;;;;;;-0.67;100.00;99597.50;5298091;27;20019;-78
2021/12/27 07:38:19;;;;;;;23.45;9.00;;;;;;;-0.76;100.00;99596.69;5297722;27;20023;-77
2021/12/27 07:40:49;;;;;;;19.92;9.15;;;;;;;-0.75;100.00;99600.97;5277081;27;20031;-79
2021/12/27 07:43:20;;;;;;;20.35;9.75;;;;;;;-0.70;100.00;99599.22;5273746;27;20032;-78
2021/12/27 07:45:50;;;;;;;20.50;9.65;;;;;;;-0.72;100.00;99604.34;5284380;28;20106;-78
2021/12/27 07:48:21;;;;;;;18.92;9.30;;;;;;;-0.91;100.00;99607.03;5284008;28;20729;-78
2021/12/27 07:50:51;;;;;;;20.13;9.57;;;;;;;-0.50;100.00;99603.34;5286385;28;20168;-78
2021/12/27 07:53:21;;;;;;;28.92;10.05;;;;;;;-0.65;100.00;99602.59;5287057;28;20028;-78
2021/12/27 07:55:52;;;;;;;20.38;9.48;;;;;;;-0.58;100.00;99599.13;5250146;28;20031;-78
2021/12/27 07:58:22;;;;;;;23.30;9.10;;;;;;;-0.57;100.00;99599.13;5238630;28;20028;-78
2021/12/27 08:00:54;;;;;;;20.00;8.80;;;;;;;-0.75;100.00;99596.69;5248699;28;20047;-78
2021/12/27 08:03:24;;;;;;;19.88;9.00;;;;;;;-0.71;100.00;99589.81;5239807;28;20110;-78
2021/12/27 08:05:54;;;;;;;20.38;8.73;;;;;;;-0.73;100.00;99592.38;5242473;28;20051;-78
2021/12/27 08:08:25;;;;;;;18.92;8.40;;;;;;;-0.56;100.00;99594.84;5239663;28;20104;-78
2021/12/27 08:10:55;;;;;;;18.77;9.45;;;;;;;-0.50;100.00;99594.78;5247038;28;20400;-77
2021/12/27 08:13:25;;;;;;;22.27;9.40;;;;;;;-0.52;100.00;99594.78;5267664;27;20658;-78
2021/12/27 08:15:56;;;;;;;18.42;9.13;;;;;;;-0.43;100.00;99597.31;5298098;27;20404;-78
2021/12/27 08:18:26;;;;;;;21.13;9.75;;;;;;;-0.30;100.00;99598.06;5292261;27;20497;-78
2021/12/27 08:20:56;;;;;;;19.73;10.25;;;;;;;-0.24;100.00;99605.72;5290141;28;20027;-77
2021/12/27 08:23:27;;;;;;;21.20;9.63;;;;;;;-0.19;100.00;99593.69;5294732;27;20039;-78
2021/12/27 08:25:57;;;;;;;16.75;9.10;;;;;;;-0.26;100.00;99590.31;5298246;27;20023;-79
2021/12/27 08:28:27;;;;;;;20.77;10.13;;;;;;;-0.34;100.00;99583.56;5295491;27;20515;-77
2021/12/27 08:30:58;;;;;;;23.10;10.40;;;;;;;-0.31;100.00;99591.22;5278637;27;20085;-79
2021/12/27 08:33:28;;;;;;;18.35;9.27;;;;;;;-0.18;100.00;99577.44;5296131;27;20073;-78
2021/12/27 08:35:58;;;;;;;21.73;9.77;;;;;;;-0.17;100.00;99572.28;5294275;27;20027;-79
2021/12/27 08:38:29;;;;;;;25.27;10.32;;;;;;;-0.08;100.00;99589.31;5293159;27;20019;-80
2021/12/27 08:40:59;;;;;;;23.55;9.75;;;;;;;-0.15;100.00;99583.38;5296515;27;20046;-77
2021/12/27 08:43:29;;;;;;;20.63;9.63;;;;;;;-0.06;100.00;99577.31;5294827;27;20027;-77
2021/12/27 08:46:00;;;;;;;23.10;10.57;;;;;;;-0.16;100.00;99581.69;5297332;27;20396;-78
2021/12/27 08:48:30;;;;;;;19.05;9.75;;;;;;;-0.11;100.00;99579.06;5292620;27;20123;-79
2021/12/27 08:51:01;;;;;;;21.35;10.43;;;;;;;0.00;100.00;99581.53;5294950;27;20128;-79
2021/12/27 08:53:31;;;;;;;22.33;11.45;;;;;;;0.22;100.00;99584.72;5285711;28;20027;-80
2021/12/27 08:56:01;;;;;;;20.08;10.07;;;;;;;0.17;100.00;99581.34;5295787;27;20050;-78
2021/12/27 08:58:32;;;;;;;24.45;11.10;;;;;;;0.26;100.00;99577.00;5295813;27;20049;-78
2021/12/27 09:01:02;;;;;;;19.55;10.30;;;;;;;0.30;100.00;99576.06;5296287;27;20051;-78
2021/12/27 09:03:34;;;;;;;24.65;11.23;;;;;;;0.28;100.00;99575.25;5295885;27;20027;-79
2021/12/27 09:06:04;;;;;;;23.50;11.02;;;;;;;0.37;100.00;99577.69;5296638;27;20519;-79
2021/12/27 09:08:34;;;;;;;22.55;11.30;;;;;;;0.36;100.00;99573.44;5288900;27;20035;-79
2021/12/27 09:11:05;;;;;;;25.35;11.68;;;;;;;0.38;100.00;99579.41;5294843;27;20108;-80
2021/12/27 09:13:38;;;;;;;23.92;11.13;;;;;;;0.40;100.00;99575.09;5296123;27;20046;-79
2021/12/27 09:16:11;;;;;;;20.20;10.65;;;;;;;0.29;100.00;99576.94;5292209;27;20122;-80
2021/12/27 09:18:41;;;;;;;20.58;10.23;;;;;;;0.36;100.00;99568.28;5288232;27;20035;-79
2021/12/27 09:21:11;;;;;;;26.02;11.57;;;;;;;0.27;100.00;99573.56;5284355;28;20027;-79
2021/12/27 09:23:42;;;;;;;25.00;10.95;;;;;;;0.24;100.00;99572.72;5283975;28;20095;-79
2021/12/27 09:26:12;;;;;;;55.55;25.95;;;;;;;0.31;100.00;99576.91;5293066;27;20731;-79
2021/12/27 09:28:42;;;;;;;23.70;12.65;;;;;;;0.35;100.00;99571.72;5297170;27;20018;-79
2021/12/27 09:31:13;;;;;;;23.45;11.20;;;;;;;0.14;100.00;99559.13;5291854;27;20117;-79
2021/12/27 09:33:43;;;;;;;21.42;10.05;;;;;;;0.21;100.00;99558.19;5297236;27;20107;-78
2021/12/27 09:36:13;;;;;;;20.40;10.13;;;;;;;0.37;100.00;99564.84;5292408;27;20592;-79
2021/12/27 09:38:45;;;;;;;25.55;12.25;;;;;;;0.52;100.00;99567.25;5296780;27;20027;-79
2021/12/27 09:41:16;;;;;;;34.58;16.08;;;;;;;0.71;100.00;99562.75;5288529;27;20043;-78
2021/12/27 09:43:47;;;;;;;31.23;16.70;;;;;;;0.86;100.00;99563.38;5268232;27;20080;-79
2021/12/27 09:46:18;;;;;;;20.92;11.00;;;;;;;0.94;100.00;99569.28;5277854;27;20040;-79
2021/12/27 09:48:51;;;;;;;24.77;11.10;;;;;;;1.03;100.00;99564.00;5288008;27;20507;-77
2021/12/27 09:51:22;;;;;;;24.38;11.85;;;;;;;0.98;100.00;99563.22;5283196;28;20043;-79
2021/12/27 09:53:53;;;;;;;24.58;11.68;;;;;;;1.09;100.00;99552.78;5284692;27;20020;-79
2021/12/27 09:56:23;;;;;;;27.58;11.63;;;;;;;1.02;100.00;99552.03;5291953;27;20076;-79
2021/12/27 09:58:54;;;;;;;22.23;11.68;;;;;;;1.05;100.00;99541.69;5292130;27;20523;-78
2021/12/27 10:01:24;;;;;;;24.60;12.00;;;;;;;1.10;100.00;99539.88;5294987;27;20130;-79
2021/12/27 10:03:57;;;;;;;25.42;13.90;;;;;;;1.00;100.00;99540.91;5291322;27;20424;-79
2021/12/27 10:06:29;;;;;;;22.17;11.50;;;;;;;1.06;100.00;99532.25;5291696;27;20169;-77
2021/12/27 10:09:06;;;;;;;23.02;11.13;;;;;;;1.19;100.00;99537.19;5292502;27;20027;-77
2021/12/27 10:11:39;;;;;;;29.50;15.43;;;;;;;0.95;100.00;99528.97;5292951;27;20058;-79
2021/12/27 10:14:14;;;;;;;27.30;12.07;;;;;;;0.99;100.00;99525.50;5287790;27;20020;-79
2021/12/27 10:16:49;;;;;;;22.45;11.98;;;;;;;0.98;100.00;99528.94;5273701;27;20519;-79
2021/12/27 10:19:21;;;;;;;20.67;10.73;;;;;;;0.89;100.00;99529.91;5283509;27;20126;-78
2021/12/27 10:21:53;;;;;;;24.50;12.88;;;;;;;1.29;100.00;99525.91;5284981;27;20464;-77
2021/12/27 10:24:28;;;;;;;24.45;12.25;;;;;;;1.33;100.00;99521.53;5291592;27;20465;-79
2021/12/27 10:27:01;;;;;;;23.77;12.77;;;;;;;1.40;100.00;99524.00;5293247;27;20054;-78
2021/12/27 10:29:34;;;;;;;24.70;12.52;;;;;;;1.39;100.00;99517.16;5293490;27;20030;-80
2021/12/27 10:32:16;;;;;;;24.02;12.02;;;;;;;1.12;100.00;99517.59;5295240;27;20718;-79
2021/12/27 10:34:49;;;;;;;20.55;11.50;;;;;;;1.25;100.00;99503.66;5288534;27;20024;-79
2021/12/27 10:37:29;;;;;;;26.10;12.13;;;;;;;1.20;100.00;99514.91;5293515;27;20035;-80
2021/12/27 10:40:02;;;;;;;24.02;12.20;;;;;;;1.27;100.00;99509.63;5293841;27;20067;-79
2021/12/27 10:42:43;;;;;;;22.58;11.90;;;;;;;1.36;100.00;99506.03;5291249;28;20024;-78
2021/12/27 10:45:18;;;;;;;24.42;12.93;;;;;;;1.31;100.00;99515.56;5290746;28;20493;-80
2021/12/27 10:47:53;;;;;;;25.70;13.27;;;;;;;1.47;100.00;99509.31;5285574;28;20036;-79
2021/12/27 10:50:26;;;;;;;23.48;12.77;;;;;;;1.55;100.00;99516.03;5271552;28;20036;-78
2021/12/27 10:53:08;;;;;;;22.88;13.50;;;;;;;1.61;100.00;99507.34;5286267;28;20035;-78
2021/12/27 10:55:46;;;;;;;22.80;12.02;;;;;;;1.58;100.00;99495.38;5289311;28;20384;-79
2021/12/27 10:58:18;;;;;;;23.63;11.95;;;;;;;1.72;100.00;99495.16;5286280;28;20043;-79
2021/12/27 11:00:51;;;;;;;26.95;13.35;;;;;;;1.79;100.00;99500.19;5294405;28;20275;-78
2021/12/27 11:03:34;;;;;;;23.67;12.82;;;;;;;1.88;100.00;99497.41;5290491;28;20046;-79
2021/12/27 11:06:10;;;;;;;21.65;12.18;;;;;;;1.78;100.00;99490.72;5292272;28;20030;-79
2021/12/27 11:08:45;;;;;;;26.83;12.43;;;;;;;1.82;100.00;99497.53;5290487;28;20039;-79
2021/12/27 11:11:16;;;;;;;22.95;11.40;;;;;;;1.82;100.00;99492.38;5289589;27;20023;-79
2021/12/27 11:13:49;;;;;;;23.15;12.82;;;;;;;1.90;100.00;99490.50;5298297;27;20027;-81
2021/12/27 11:16:20;;;;;;;20.75;11.45;;;;;;;1.77;100.00;99481.31;5292305;27;20114;-82
2021/12/27 11:18:50;;;;;;;22.42;12.57;;;;;;;1.91;100.00;99487.91;5289697;27;20050;-79
2021/12/27 11:21:31;;;;;;;25.10;11.65;;;;;;;1.93;100.00;99486.16;5288976;27;20257;-79
2021/12/27 11:24:03;;;;;;;27.50;12.05;;;;;;;2.00;100.00;99484.31;5287468;27;20516;-79
2021/12/27 11:26:40;;;;;;;21.77;11.57;;;;;;;2.04;100.00;99484.25;5290327;27;20373;-80
2021/12/27 11:29:22;;;;;;;23.23;11.55;;;;;;;2.04;100.00;99473.06;5287291;27;20384;-79
2021/12/27 11:32:11;;;;;;;18.45;10.65;;;;;;;2.03;100.00;99472.22;5286501;27;20031;-79
2021/12/27 11:34:55;;;;;;;20.70;11.35;;;;;;;2.11;100.00;99462.63;5292646;27;20092;-80
2021/12/27 11:37:37;;;;;;;24.90;11.85;;;;;;;2.04;100.00;99471.38;5292346;27;20036;-79
2021/12/27 11:40:11;;;;;;;21.90;11.70;;;;;;;2.11;100.00;99456.59;5294548;27;20035;-79